メインページ
METAR-TAF:

METAR-TAF

空港 :

ヤウンデ・ンシマレン国際空港

ヤウンデ, カメルーン

緯度: 03-50N, 経度: 011-31E, 海抜: 751m

現時点の気象観測

当レポートは46分前の01:00(UTC)に作成
気温 20°C
湿度 100%
気圧 1017 hPa
視程: 8000m
高度600ftの千切れ雲あり
高度2000ftの雲はほとんどない, 積乱雲.

METAR: FKYS 160100Z /////KT 8000 BKN006 FEW020CB 20/20 Q1017 RETS NOSIG

時間: 02:46 (01:46 UTC)

予報

当レポートは2時間46分前の23:00(UTC)に作成
予報は16日の 00時(UTC)から 16日の 24時(UTC)まで有効
変向風 5kt
視程: 8000m
高度600ftの千切れ雲あり
高度1300ftの雲はほとんどない, 積乱雲.
激しい雷雨, 小雨
16日の 00時(UTC)から 16日の 02時(UTC)まで徐々に
視程: 1700m
高度300ftの雲はほとんどない
高度600ftの千切れ雲あり
16日の 06時(UTC)から 16日の 08時(UTC)まで徐々に
視程: 8000m
高度1600ftの千切れ雲あり
16日の 14時(UTC)から 16日の 22時(UTC)まで一時的に
高度1400ftの千切れ雲あり
高度2000ftの雲はほとんどない, 積乱雲.
激しい雷雨
16日の 22時(UTC)から 16日の 24時(UTC)まで徐々に
高度600ftの千切れ雲あり

TAF: FKYS 152300Z 1600/1624 VRB05KT 8000 -TSRA BKN006 FEW013CB BECMG 1600/1602 1700 BR FEW003 BKN006 BECMG 1606/1608 8000 NSW BKN016 TEMPO 1614/1622 TS BKN014 FEW020CB BECMG 1622/1624 BKN006

4,000以上の空港の気象観測と天気予報(METAR報とTAF報)

利用可能な観測所は地図上に黄色い丸と赤い丸で示す。

丸の上にカーソルを重ねると観測所名を参照できる。

次にクリックすると気象観測と天気予報を参照できる。

マップの切り替え:黒色「×」印の緑ボタンをクリックして拡大、「-」印の緑ボタンをクリックして縮小、緑色の三角印をクリックして隣りの地図に切り替え


METAR-TAF: